OCN1ZM EDDF-EINN
Flight info
| Callsign | OCN1ZM |
|---|---|
| Flight time | 1h 53m |
| Altitude | 36000 |
| Route | OBOKA1E OBOKA Z29 TORNU DCT BREDA DCT GALSO Q63 ERING L179 UGBET Q60 OKSAW DCT BIBPE DCT FELCA DCT NICXI DCT OFSOX DCT SLANY DCT TIPUR TIPUR2E |
| Aircraft | A320/M-SDE3FGHIRWY/LB1 |
Departure
| Time | 2026-05-08 10:28 |
|---|---|
| Airport | Frankfurt Main Airport (EDDF) |
Arrival
| Time | 2026-05-08 12:21 |
|---|---|
| Airport | Shannon Airport (EINN) |
| Time | Latitude | Longitude | Altitude | Speed | Heading |
|---|---|---|---|---|---|
| 2026-05-08 09:53 | 50.04082 | 8.55746 | 360 ft | 0 kts | 159° |
| 2026-05-08 10:21 | 50.04073 | 8.55752 | 359 ft | 4 kts | 159° |
| 2026-05-08 10:22 | 50.04026 | 8.55777 | 352 ft | 10 kts | 168° |
| 2026-05-08 10:22 | 50.03985 | 8.55690 | 351 ft | 13 kts | 249° |
| 2026-05-08 10:22 | 50.03951 | 8.55530 | 356 ft | 17 kts | 258° |
| 2026-05-08 10:22 | 50.04041 | 8.55425 | 358 ft | 19 kts | 340° |
| 2026-05-08 10:23 | 50.04087 | 8.55313 | 354 ft | 12 kts | 257° |
| 2026-05-08 10:23 | 50.04062 | 8.55202 | 357 ft | 10 kts | 249° |
| 2026-05-08 10:23 | 50.04035 | 8.55085 | 359 ft | 12 kts | 251° |
| 2026-05-08 10:23 | 50.04006 | 8.54962 | 359 ft | 16 kts | 250° |
| 2026-05-08 10:24 | 50.03955 | 8.54748 | 353 ft | 26 kts | 251° |
| 2026-05-08 10:24 | 50.03881 | 8.54436 | 348 ft | 24 kts | 250° |
| 2026-05-08 10:24 | 50.03830 | 8.54306 | 351 ft | 12 kts | 232° |
| 2026-05-08 10:24 | 50.03793 | 8.54195 | 350 ft | 11 kts | 248° |
| 2026-05-08 10:25 | 50.03762 | 8.54067 | 352 ft | 16 kts | 250° |
| 2026-05-08 10:25 | 50.03710 | 8.53847 | 348 ft | 26 kts | 250° |
| 2026-05-08 10:25 | 50.03642 | 8.53590 | 338 ft | 22 kts | 237° |
| 2026-05-08 10:25 | 50.03514 | 8.53483 | 335 ft | 22 kts | 206° |
| 2026-05-08 10:26 | 50.03398 | 8.53443 | 338 ft | 14 kts | 163° |
| 2026-05-08 10:26 | 50.03341 | 8.53519 | 336 ft | 0 kts | 131° |
| 2026-05-08 10:26 | 50.03321 | 8.53542 | 336 ft | 9 kts | 151° |
| 2026-05-08 10:27 | 50.03305 | 8.53645 | 334 ft | 1 kts | 67° |
| 2026-05-08 10:27 | 50.03337 | 8.53775 | 335 ft | 42 kts | 69° |
| 2026-05-08 10:27 | 50.03518 | 8.54534 | 347 ft | 104 kts | 69° |
| 2026-05-08 10:27 | 50.03831 | 8.55840 | 358 ft | 151 kts | 69° |
| 2026-05-08 10:28 | 50.04235 | 8.57495 | 725 ft | 165 kts | 70° |
| 2026-05-08 10:28 | 50.04638 | 8.59163 | 1438 ft | 165 kts | 70° |
| 2026-05-08 10:28 | 50.05035 | 8.60823 | 2074 ft | 164 kts | 69° |
| 2026-05-08 10:28 | 50.05532 | 8.62424 | 2671 ft | 166 kts | 52° |
| 2026-05-08 10:29 | 50.06424 | 8.63545 | 3264 ft | 167 kts | 24° |
| 2026-05-08 10:29 | 50.07580 | 8.63772 | 3756 ft | 175 kts | 355° |
| 2026-05-08 10:29 | 50.08847 | 8.63554 | 4109 ft | 190 kts | 355° |
| 2026-05-08 10:29 | 50.10195 | 8.63382 | 4535 ft | 199 kts | 355° |
| 2026-05-08 10:30 | 50.11607 | 8.63266 | 4994 ft | 207 kts | 357° |
| 2026-05-08 10:30 | 50.13067 | 8.63181 | 5482 ft | 213 kts | 357° |
| 2026-05-08 10:30 | 50.14561 | 8.63106 | 5991 ft | 217 kts | 356° |
| 2026-05-08 10:30 | 50.16098 | 8.63029 | 6427 ft | 227 kts | 356° |
| 2026-05-08 10:31 | 50.17747 | 8.62939 | 6760 ft | 247 kts | 356° |
| 2026-05-08 10:31 | 50.19533 | 8.62871 | 7164 ft | 265 kts | 357° |
| 2026-05-08 10:31 | 50.21430 | 8.62771 | 7650 ft | 280 kts | 356° |
| 2026-05-08 10:31 | 50.23412 | 8.62635 | 8247 ft | 291 kts | 355° |
| 2026-05-08 10:32 | 50.25463 | 8.62446 | 8885 ft | 300 kts | 354° |
| 2026-05-08 10:32 | 50.27562 | 8.62208 | 9674 ft | 301 kts | 355° |
| 2026-05-08 10:32 | 50.29623 | 8.61778 | 10450 ft | 304 kts | 343° |
| 2026-05-08 10:32 | 50.31608 | 8.60384 | 10628 ft | 324 kts | 323° |
| 2026-05-08 10:33 | 50.33250 | 8.57854 | 10833 ft | 341 kts | 303° |
| 2026-05-08 10:33 | 50.34283 | 8.54440 | 11376 ft | 346 kts | 287° |
| 2026-05-08 10:33 | 50.35054 | 8.50841 | 12047 ft | 349 kts | 287° |
| 2026-05-08 10:33 | 50.35822 | 8.47296 | 12718 ft | 352 kts | 288° |
| 2026-05-08 10:34 | 50.36617 | 8.43650 | 13404 ft | 355 kts | 288° |
| 2026-05-08 10:34 | 50.37323 | 8.39881 | 14058 ft | 358 kts | 280° |
| 2026-05-08 10:34 | 50.37542 | 8.35994 | 14649 ft | 360 kts | 268° |
| 2026-05-08 10:34 | 50.37241 | 8.32165 | 15231 ft | 362 kts | 256° |
| 2026-05-08 10:35 | 50.36505 | 8.28323 | 15837 ft | 364 kts | 252° |
| 2026-05-08 10:35 | 50.35738 | 8.24534 | 16433 ft | 366 kts | 252° |
| 2026-05-08 10:35 | 50.34974 | 8.20720 | 17032 ft | 368 kts | 253° |
| 2026-05-08 10:35 | 50.34212 | 8.16887 | 17602 ft | 371 kts | 253° |
| 2026-05-08 10:36 | 50.33441 | 8.13018 | 18176 ft | 373 kts | 253° |
| 2026-05-08 10:36 | 50.32665 | 8.09131 | 18689 ft | 375 kts | 253° |
| 2026-05-08 10:36 | 50.31880 | 8.05219 | 19173 ft | 378 kts | 253° |
| 2026-05-08 10:36 | 50.31090 | 8.01293 | 19626 ft | 380 kts | 253° |
| 2026-05-08 10:37 | 50.30337 | 7.97364 | 20080 ft | 383 kts | 257° |
| 2026-05-08 10:37 | 50.29980 | 7.93234 | 20535 ft | 385 kts | 268° |
| 2026-05-08 10:37 | 50.30145 | 7.89040 | 20972 ft | 388 kts | 279° |
| 2026-05-08 10:37 | 50.30848 | 7.84947 | 21410 ft | 392 kts | 290° |
| 2026-05-08 10:38 | 50.31962 | 7.81034 | 21826 ft | 396 kts | 293° |
| 2026-05-08 10:38 | 50.33111 | 7.77105 | 22240 ft | 399 kts | 293° |
| 2026-05-08 10:38 | 50.34317 | 7.73116 | 22670 ft | 402 kts | 297° |
| 2026-05-08 10:38 | 50.35887 | 7.69470 | 23080 ft | 407 kts | 308° |
| 2026-05-08 10:39 | 50.37863 | 7.66352 | 23482 ft | 412 kts | 319° |
| 2026-05-08 10:39 | 50.40241 | 7.63802 | 23862 ft | 417 kts | 329° |
| 2026-05-08 10:39 | 50.42915 | 7.61855 | 24225 ft | 420 kts | 334° |
| 2026-05-08 10:39 | 50.45602 | 7.60015 | 24561 ft | 422 kts | 334° |
| 2026-05-08 10:40 | 50.48256 | 7.58191 | 24871 ft | 424 kts | 334° |
| 2026-05-08 10:40 | 50.50969 | 7.56318 | 25189 ft | 426 kts | 334° |
| 2026-05-08 10:40 | 50.53689 | 7.54433 | 25510 ft | 428 kts | 334° |
| 2026-05-08 10:40 | 50.56370 | 7.52369 | 25812 ft | 429 kts | 327° |
| 2026-05-08 10:41 | 50.58882 | 7.49845 | 26127 ft | 430 kts | 324° |
| 2026-05-08 10:41 | 50.61396 | 7.47265 | 26446 ft | 432 kts | 324° |
| 2026-05-08 10:41 | 50.63922 | 7.44671 | 26754 ft | 435 kts | 324° |
| 2026-05-08 10:41 | 50.66460 | 7.42066 | 27074 ft | 437 kts | 324° |
| 2026-05-08 10:42 | 50.69015 | 7.39445 | 27386 ft | 439 kts | 324° |
| 2026-05-08 10:42 | 50.71538 | 7.36726 | 27678 ft | 439 kts | 319° |
| 2026-05-08 10:42 | 50.73785 | 7.33477 | 27961 ft | 438 kts | 310° |
| 2026-05-08 10:42 | 50.75676 | 7.29714 | 28240 ft | 438 kts | 301° |
| 2026-05-08 10:43 | 50.77186 | 7.25547 | 28520 ft | 438 kts | 295° |
| 2026-05-08 10:43 | 50.78578 | 7.21252 | 28764 ft | 440 kts | 295° |
| 2026-05-08 10:43 | 50.79979 | 7.16949 | 29038 ft | 441 kts | 295° |
| 2026-05-08 10:43 | 50.81389 | 7.12626 | 29301 ft | 443 kts | 295° |
| 2026-05-08 10:44 | 50.82801 | 7.08283 | 29549 ft | 445 kts | 295° |
| 2026-05-08 10:44 | 50.84215 | 7.03922 | 29801 ft | 447 kts | 295° |
| 2026-05-08 10:44 | 50.85629 | 6.99543 | 30094 ft | 448 kts | 295° |
| 2026-05-08 10:44 | 50.87044 | 6.95151 | 30409 ft | 447 kts | 295° |
| 2026-05-08 10:45 | 50.88434 | 6.90832 | 30716 ft | 446 kts | 295° |
| 2026-05-08 10:45 | 50.89843 | 6.86456 | 31025 ft | 445 kts | 295° |
| 2026-05-08 10:45 | 50.91246 | 6.82095 | 31350 ft | 444 kts | 294° |
| 2026-05-08 10:45 | 50.92642 | 6.77737 | 31661 ft | 443 kts | 294° |
| 2026-05-08 10:46 | 50.94030 | 6.73391 | 31977 ft | 442 kts | 294° |
| 2026-05-08 10:46 | 50.95413 | 6.69050 | 32282 ft | 441 kts | 294° |
| 2026-05-08 10:46 | 50.96790 | 6.64720 | 32602 ft | 440 kts | 294° |
| 2026-05-08 10:46 | 50.98164 | 6.60387 | 32936 ft | 439 kts | 294° |
| 2026-05-08 10:47 | 50.99534 | 6.56071 | 33209 ft | 438 kts | 294° |
| 2026-05-08 10:47 | 51.00909 | 6.51749 | 33501 ft | 438 kts | 294° |
| 2026-05-08 10:47 | 51.02278 | 6.47439 | 33806 ft | 437 kts | 294° |
| 2026-05-08 10:47 | 51.03183 | 6.44584 | 34003 ft | 436 kts | 294° |
| 2026-05-08 10:48 | 51.05001 | 6.38833 | 34361 ft | 435 kts | 294° |
| 2026-05-08 10:48 | 51.05895 | 6.35995 | 34523 ft | 435 kts | 294° |
| 2026-05-08 10:48 | 51.07247 | 6.31689 | 34748 ft | 435 kts | 294° |
| 2026-05-08 10:48 | 51.08595 | 6.27395 | 34954 ft | 435 kts | 294° |
| 2026-05-08 10:49 | 51.09946 | 6.23085 | 35168 ft | 435 kts | 294° |
| 2026-05-08 10:49 | 51.11288 | 6.18779 | 35364 ft | 435 kts | 294° |
| 2026-05-08 10:49 | 51.12631 | 6.14469 | 35577 ft | 435 kts | 294° |
| 2026-05-08 10:49 | 51.13887 | 6.10104 | 35759 ft | 433 kts | 287° |
| 2026-05-08 10:50 | 51.14749 | 6.05528 | 35942 ft | 431 kts | 282° |
| 2026-05-08 10:50 | 51.15494 | 6.00900 | 36094 ft | 431 kts | 282° |
| 2026-05-08 10:50 | 51.16240 | 5.96274 | 36134 ft | 432 kts | 282° |
| 2026-05-08 10:51 | 51.17747 | 5.87006 | 36118 ft | 432 kts | 284° |
| 2026-05-08 10:51 | 51.20291 | 5.78307 | 36109 ft | 437 kts | 300° |
| 2026-05-08 10:52 | 51.23523 | 5.70102 | 36114 ft | 437 kts | 299° |
| 2026-05-08 10:52 | 51.26734 | 5.61861 | 36111 ft | 437 kts | 299° |
| 2026-05-08 10:53 | 51.29939 | 5.53593 | 36116 ft | 438 kts | 299° |
| 2026-05-08 10:53 | 51.33136 | 5.45321 | 36138 ft | 438 kts | 299° |
| 2026-05-08 10:54 | 51.36332 | 5.37033 | 36140 ft | 438 kts | 299° |
| 2026-05-08 10:54 | 51.39522 | 5.28735 | 36142 ft | 438 kts | 299° |
| 2026-05-08 10:55 | 51.42708 | 5.20423 | 36139 ft | 438 kts | 299° |
| 2026-05-08 10:55 | 51.45891 | 5.12090 | 36133 ft | 438 kts | 299° |
| 2026-05-08 10:56 | 51.49068 | 5.03756 | 36151 ft | 438 kts | 299° |
| 2026-05-08 10:56 | 51.52233 | 4.95399 | 36149 ft | 438 kts | 299° |
| 2026-05-08 10:57 | 51.55266 | 4.86932 | 36145 ft | 436 kts | 291° |
| 2026-05-08 10:57 | 51.57388 | 4.72877 | 36138 ft | 432 kts | 278° |
| 2026-05-08 10:58 | 51.58428 | 4.63357 | 36110 ft | 432 kts | 278° |
| 2026-05-08 10:58 | 51.59467 | 4.53831 | 36111 ft | 433 kts | 278° |
| 2026-05-08 10:59 | 51.60489 | 4.44298 | 36108 ft | 433 kts | 278° |
| 2026-05-08 10:59 | 51.61496 | 4.34752 | 36110 ft | 433 kts | 278° |
| 2026-05-08 11:00 | 51.62496 | 4.25204 | 36105 ft | 433 kts | 278° |
| 2026-05-08 11:00 | 51.63493 | 4.15644 | 36107 ft | 433 kts | 278° |
| 2026-05-08 11:01 | 51.64481 | 4.06090 | 36111 ft | 433 kts | 278° |
| 2026-05-08 11:01 | 51.65458 | 3.96528 | 36113 ft | 433 kts | 278° |
| 2026-05-08 11:02 | 51.66907 | 3.82177 | 36121 ft | 433 kts | 278° |
| 2026-05-08 11:03 | 51.67879 | 3.72599 | 36115 ft | 433 kts | 278° |
| 2026-05-08 11:03 | 51.68830 | 3.63076 | 36119 ft | 433 kts | 278° |
| 2026-05-08 11:04 | 51.69774 | 3.53484 | 36119 ft | 433 kts | 278° |
| 2026-05-08 11:04 | 51.70709 | 3.43893 | 36119 ft | 433 kts | 278° |
| 2026-05-08 11:05 | 51.71646 | 3.34291 | 36123 ft | 433 kts | 278° |
| 2026-05-08 11:05 | 51.72568 | 3.24684 | 36120 ft | 434 kts | 277° |
| 2026-05-08 11:06 | 51.73047 | 3.15031 | 36117 ft | 432 kts | 265° |
| 2026-05-08 11:06 | 51.72266 | 3.05439 | 36118 ft | 432 kts | 262° |
| 2026-05-08 11:07 | 51.71441 | 2.95850 | 36115 ft | 432 kts | 262° |
| 2026-05-08 11:07 | 51.70605 | 2.86267 | 36124 ft | 432 kts | 262° |
| 2026-05-08 11:08 | 51.69757 | 2.76684 | 36127 ft | 432 kts | 261° |
| 2026-05-08 11:08 | 51.68902 | 2.67104 | 36124 ft | 432 kts | 261° |
| 2026-05-08 11:09 | 51.68044 | 2.57522 | 36117 ft | 432 kts | 261° |
| 2026-05-08 11:09 | 51.67181 | 2.47949 | 36116 ft | 432 kts | 261° |
| 2026-05-08 11:10 | 51.66305 | 2.38374 | 36121 ft | 432 kts | 262° |
| 2026-05-08 11:10 | 51.65419 | 2.28812 | 36126 ft | 432 kts | 261° |
| 2026-05-08 11:11 | 51.64523 | 2.19249 | 36127 ft | 432 kts | 261° |
| 2026-05-08 11:11 | 51.63624 | 2.09694 | 36126 ft | 432 kts | 261° |
| 2026-05-08 11:12 | 51.62732 | 2.00136 | 36125 ft | 432 kts | 262° |
| 2026-05-08 11:12 | 51.61853 | 1.90580 | 36127 ft | 432 kts | 262° |
| 2026-05-08 11:13 | 51.60963 | 1.81029 | 36128 ft | 432 kts | 262° |
| 2026-05-08 11:13 | 51.60053 | 1.71479 | 36131 ft | 432 kts | 262° |
| 2026-05-08 11:14 | 51.59207 | 1.61925 | 36125 ft | 431 kts | 267° |
| 2026-05-08 11:14 | 51.59461 | 1.52317 | 36121 ft | 430 kts | 274° |
| 2026-05-08 11:15 | 51.59884 | 1.42707 | 36117 ft | 431 kts | 274° |
| 2026-05-08 11:15 | 51.60282 | 1.33107 | 36117 ft | 430 kts | 274° |
| 2026-05-08 11:16 | 51.60671 | 1.23506 | 36118 ft | 430 kts | 274° |
| 2026-05-08 11:16 | 51.61068 | 1.13900 | 36114 ft | 430 kts | 274° |
| 2026-05-08 11:17 | 51.61453 | 1.04308 | 36111 ft | 430 kts | 274° |
| 2026-05-08 11:17 | 51.61826 | 0.94699 | 36104 ft | 430 kts | 275° |
| 2026-05-08 11:18 | 51.62187 | 0.85118 | 36121 ft | 429 kts | 275° |
| 2026-05-08 11:18 | 51.62538 | 0.75557 | 36125 ft | 428 kts | 275° |
| 2026-05-08 11:19 | 51.62890 | 0.66001 | 36124 ft | 427 kts | 275° |
| 2026-05-08 11:19 | 51.63230 | 0.56458 | 36121 ft | 427 kts | 275° |
| 2026-05-08 11:20 | 51.63566 | 0.46921 | 36111 ft | 427 kts | 275° |
| 2026-05-08 11:20 | 51.63884 | 0.37397 | 36118 ft | 426 kts | 275° |
| 2026-05-08 11:21 | 51.64197 | 0.27893 | 36118 ft | 425 kts | 275° |
| 2026-05-08 11:21 | 51.64502 | 0.18402 | 36120 ft | 424 kts | 274° |
| 2026-05-08 11:22 | 51.63942 | 0.08933 | 36118 ft | 427 kts | 262° |
| 2026-05-08 11:22 | 51.62921 | -0.00486 | 36130 ft | 427 kts | 262° |
| 2026-05-08 11:23 | 51.61948 | -0.09851 | 36137 ft | 425 kts | 267° |
| 2026-05-08 11:23 | 51.62161 | -0.19269 | 36148 ft | 421 kts | 277° |
| 2026-05-08 11:24 | 51.62753 | -0.28631 | 36144 ft | 421 kts | 277° |
| 2026-05-08 11:24 | 51.63316 | -0.37996 | 36088 ft | 420 kts | 277° |
| 2026-05-08 11:25 | 51.63875 | -0.47368 | 36088 ft | 420 kts | 277° |
| 2026-05-08 11:25 | 51.64419 | -0.56726 | 36088 ft | 420 kts | 277° |
| 2026-05-08 11:26 | 51.64958 | -0.66034 | 36087 ft | 420 kts | 277° |
| 2026-05-08 11:26 | 51.65504 | -0.75390 | 36086 ft | 420 kts | 277° |
| 2026-05-08 11:27 | 51.66038 | -0.84765 | 36086 ft | 420 kts | 276° |
| 2026-05-08 11:27 | 51.66553 | -0.94116 | 36085 ft | 420 kts | 276° |
| 2026-05-08 11:28 | 51.67062 | -1.03485 | 36086 ft | 419 kts | 276° |
| 2026-05-08 11:28 | 51.67567 | -1.12830 | 36097 ft | 418 kts | 276° |
| 2026-05-08 11:29 | 51.68071 | -1.22150 | 36099 ft | 417 kts | 276° |
| 2026-05-08 11:29 | 51.68562 | -1.31474 | 36096 ft | 417 kts | 276° |
| 2026-05-08 11:30 | 51.69033 | -1.40782 | 36091 ft | 417 kts | 276° |
| 2026-05-08 11:30 | 51.69507 | -1.50086 | 36094 ft | 416 kts | 275° |
| 2026-05-08 11:31 | 51.69975 | -1.59379 | 36100 ft | 415 kts | 275° |
| 2026-05-08 11:31 | 51.70429 | -1.68651 | 36088 ft | 415 kts | 275° |
| 2026-05-08 11:32 | 51.70908 | -1.76325 | 36086 ft | 414 kts | 277° |
| 2026-05-08 11:32 | 51.71617 | -1.85541 | 36084 ft | 414 kts | 277° |
| 2026-05-08 11:33 | 51.72326 | -1.94751 | 36087 ft | 414 kts | 277° |
| 2026-05-08 11:33 | 51.72986 | -2.03952 | 36094 ft | 413 kts | 276° |
| 2026-05-08 11:34 | 51.73621 | -2.13152 | 36093 ft | 412 kts | 276° |
| 2026-05-08 11:34 | 51.74250 | -2.22338 | 36092 ft | 412 kts | 276° |
| 2026-05-08 11:35 | 51.74875 | -2.31520 | 36090 ft | 412 kts | 276° |
| 2026-05-08 11:35 | 51.75495 | -2.40698 | 36083 ft | 411 kts | 276° |
| 2026-05-08 11:36 | 51.76104 | -2.49871 | 36082 ft | 411 kts | 275° |
| 2026-05-08 11:36 | 51.76709 | -2.59040 | 36077 ft | 410 kts | 275° |
| 2026-05-08 11:37 | 51.77308 | -2.68193 | 36071 ft | 410 kts | 275° |
| 2026-05-08 11:37 | 51.77898 | -2.77354 | 36087 ft | 410 kts | 275° |
| 2026-05-08 11:38 | 51.78483 | -2.86516 | 36129 ft | 410 kts | 275° |
| 2026-05-08 11:38 | 51.79056 | -2.95663 | 36124 ft | 410 kts | 275° |
| 2026-05-08 11:39 | 51.79622 | -3.04820 | 36122 ft | 409 kts | 274° |
| 2026-05-08 11:39 | 51.80174 | -3.13971 | 36110 ft | 409 kts | 274° |
| 2026-05-08 11:40 | 51.80724 | -3.23118 | 36096 ft | 409 kts | 274° |
| 2026-05-08 11:40 | 51.81271 | -3.32274 | 36081 ft | 409 kts | 274° |
| 2026-05-08 11:41 | 51.81807 | -3.41420 | 36072 ft | 409 kts | 274° |
| 2026-05-08 11:41 | 51.82332 | -3.50547 | 36058 ft | 409 kts | 274° |
| 2026-05-08 11:42 | 51.83277 | -3.59619 | 36055 ft | 410 kts | 280° |
| 2026-05-08 11:42 | 51.84460 | -3.68638 | 36053 ft | 410 kts | 279° |
| 2026-05-08 11:43 | 51.85620 | -3.77665 | 36050 ft | 410 kts | 279° |
| 2026-05-08 11:43 | 51.86773 | -3.86700 | 36047 ft | 410 kts | 279° |
| 2026-05-08 11:44 | 51.87923 | -3.95733 | 36051 ft | 410 kts | 279° |
| 2026-05-08 11:44 | 51.89073 | -4.04767 | 36049 ft | 410 kts | 279° |
| 2026-05-08 11:45 | 51.90201 | -4.13810 | 36052 ft | 410 kts | 279° |
| 2026-05-08 11:45 | 51.91326 | -4.22871 | 36054 ft | 410 kts | 279° |
| 2026-05-08 11:46 | 51.92450 | -4.31924 | 36053 ft | 410 kts | 278° |
| 2026-05-08 11:46 | 51.93568 | -4.40984 | 36060 ft | 410 kts | 278° |
| 2026-05-08 11:47 | 51.94679 | -4.50043 | 36061 ft | 410 kts | 278° |
| 2026-05-08 11:47 | 51.95780 | -4.59100 | 36078 ft | 410 kts | 278° |
| 2026-05-08 11:48 | 51.96875 | -4.68162 | 36072 ft | 409 kts | 278° |
| 2026-05-08 11:48 | 51.97964 | -4.77222 | 36069 ft | 409 kts | 278° |
| 2026-05-08 11:49 | 51.99039 | -4.86281 | 36065 ft | 409 kts | 278° |
| 2026-05-08 11:49 | 52.00109 | -4.95343 | 36072 ft | 409 kts | 277° |
| 2026-05-08 11:50 | 52.01167 | -5.04398 | 36067 ft | 408 kts | 277° |
| 2026-05-08 11:50 | 52.02216 | -5.13460 | 36064 ft | 408 kts | 277° |
| 2026-05-08 11:51 | 52.03505 | -5.22443 | 36055 ft | 411 kts | 284° |
| 2026-05-08 11:51 | 52.05304 | -5.31260 | 36056 ft | 411 kts | 284° |
| 2026-05-08 11:52 | 52.07087 | -5.40085 | 36051 ft | 411 kts | 284° |
| 2026-05-08 11:52 | 52.08857 | -5.48920 | 36054 ft | 411 kts | 284° |
| 2026-05-08 11:53 | 52.10626 | -5.57760 | 36061 ft | 411 kts | 284° |
| 2026-05-08 11:53 | 52.12385 | -5.66602 | 36056 ft | 411 kts | 284° |
| 2026-05-08 11:54 | 52.14136 | -5.75462 | 36060 ft | 411 kts | 284° |
| 2026-05-08 11:54 | 52.15882 | -5.84328 | 36081 ft | 411 kts | 284° |
| 2026-05-08 11:55 | 52.17637 | -5.93195 | 36082 ft | 411 kts | 284° |
| 2026-05-08 11:55 | 52.19407 | -6.02051 | 36076 ft | 411 kts | 284° |
| 2026-05-08 11:56 | 52.21175 | -6.10927 | 36075 ft | 411 kts | 283° |
| 2026-05-08 11:56 | 52.22932 | -6.19810 | 36071 ft | 411 kts | 283° |
| 2026-05-08 11:57 | 52.24673 | -6.28696 | 36072 ft | 411 kts | 283° |
| 2026-05-08 11:57 | 52.26405 | -6.37597 | 36070 ft | 412 kts | 283° |
| 2026-05-08 11:58 | 52.28135 | -6.46505 | 36075 ft | 411 kts | 283° |
| 2026-05-08 11:58 | 52.29855 | -6.55420 | 36073 ft | 411 kts | 283° |
| 2026-05-08 11:59 | 52.32421 | -6.68796 | 36066 ft | 411 kts | 283° |
| 2026-05-08 11:59 | 52.34136 | -6.77750 | 35142 ft | 418 kts | 283° |
| 2026-05-08 12:00 | 52.35009 | -6.82324 | 34270 ft | 423 kts | 282° |
| 2026-05-08 12:00 | 52.35870 | -6.86832 | 33641 ft | 419 kts | 282° |
| 2026-05-08 12:00 | 52.36739 | -6.91390 | 32669 ft | 422 kts | 282° |
| 2026-05-08 12:00 | 52.37626 | -6.96075 | 31549 ft | 429 kts | 282° |
| 2026-05-08 12:01 | 52.38507 | -7.00754 | 30648 ft | 431 kts | 282° |
| 2026-05-08 12:01 | 52.39384 | -7.05429 | 30054 ft | 427 kts | 282° |
| 2026-05-08 12:01 | 52.40238 | -7.09979 | 29428 ft | 421 kts | 282° |
| 2026-05-08 12:01 | 52.41102 | -7.14585 | 28838 ft | 414 kts | 282° |
| 2026-05-08 12:02 | 52.41931 | -7.19012 | 28273 ft | 409 kts | 282° |
| 2026-05-08 12:02 | 52.42757 | -7.23439 | 27708 ft | 404 kts | 282° |
| 2026-05-08 12:02 | 52.43568 | -7.27816 | 27159 ft | 399 kts | 282° |
| 2026-05-08 12:02 | 52.44369 | -7.32153 | 26610 ft | 395 kts | 282° |
| 2026-05-08 12:03 | 52.45165 | -7.36462 | 26065 ft | 391 kts | 282° |
| 2026-05-08 12:03 | 52.45949 | -7.40705 | 25530 ft | 388 kts | 282° |
| 2026-05-08 12:03 | 52.46726 | -7.44918 | 25003 ft | 384 kts | 282° |
| 2026-05-08 12:03 | 52.47494 | -7.49094 | 24498 ft | 381 kts | 282° |
| 2026-05-08 12:04 | 52.48255 | -7.53253 | 23980 ft | 379 kts | 282° |
| 2026-05-08 12:04 | 52.49008 | -7.57379 | 23456 ft | 377 kts | 282° |
| 2026-05-08 12:04 | 52.49753 | -7.61472 | 22960 ft | 372 kts | 282° |
| 2026-05-08 12:04 | 52.50491 | -7.65516 | 22502 ft | 368 kts | 282° |
| 2026-05-08 12:05 | 52.51218 | -7.69512 | 22078 ft | 363 kts | 282° |
| 2026-05-08 12:05 | 52.51933 | -7.73457 | 21660 ft | 359 kts | 282° |
| 2026-05-08 12:05 | 52.52640 | -7.77364 | 21244 ft | 355 kts | 282° |
| 2026-05-08 12:05 | 52.53336 | -7.81230 | 20838 ft | 352 kts | 282° |
| 2026-05-08 12:06 | 52.54028 | -7.85080 | 20423 ft | 350 kts | 282° |
| 2026-05-08 12:06 | 52.54716 | -7.88908 | 20005 ft | 349 kts | 282° |
| 2026-05-08 12:06 | 52.55401 | -7.92729 | 19580 ft | 347 kts | 282° |
| 2026-05-08 12:06 | 52.56080 | -7.96522 | 19156 ft | 346 kts | 282° |
| 2026-05-08 12:07 | 52.56753 | -8.00309 | 18726 ft | 344 kts | 282° |
| 2026-05-08 12:07 | 52.57424 | -8.04082 | 18286 ft | 344 kts | 282° |
| 2026-05-08 12:07 | 52.58092 | -8.07849 | 17799 ft | 342 kts | 282° |
| 2026-05-08 12:07 | 52.58511 | -8.11654 | 17352 ft | 336 kts | 271° |
| 2026-05-08 12:08 | 52.58504 | -8.15457 | 16910 ft | 330 kts | 261° |
| 2026-05-08 12:08 | 52.58126 | -8.19154 | 16477 ft | 327 kts | 256° |
| 2026-05-08 12:08 | 52.57683 | -8.22817 | 16037 ft | 326 kts | 256° |
| 2026-05-08 12:08 | 52.57246 | -8.26470 | 15591 ft | 326 kts | 257° |
| 2026-05-08 12:09 | 52.56813 | -8.30121 | 15157 ft | 325 kts | 257° |
| 2026-05-08 12:09 | 52.56379 | -8.33762 | 14715 ft | 325 kts | 257° |
| 2026-05-08 12:09 | 52.55942 | -8.37401 | 14282 ft | 324 kts | 257° |
| 2026-05-08 12:09 | 52.55502 | -8.41037 | 13833 ft | 324 kts | 257° |
| 2026-05-08 12:10 | 52.55059 | -8.44673 | 13364 ft | 324 kts | 257° |
| 2026-05-08 12:10 | 52.54618 | -8.48295 | 12915 ft | 323 kts | 257° |
| 2026-05-08 12:10 | 52.54180 | -8.51899 | 12476 ft | 321 kts | 257° |
| 2026-05-08 12:10 | 52.53742 | -8.55492 | 12017 ft | 320 kts | 257° |
| 2026-05-08 12:11 | 52.53305 | -8.59071 | 11559 ft | 320 kts | 257° |
| 2026-05-08 12:11 | 52.52866 | -8.62653 | 11096 ft | 319 kts | 257° |
| 2026-05-08 12:11 | 52.52426 | -8.66223 | 10641 ft | 319 kts | 257° |
| 2026-05-08 12:11 | 52.51991 | -8.69729 | 10493 ft | 308 kts | 257° |
| 2026-05-08 12:12 | 52.51575 | -8.73079 | 10369 ft | 298 kts | 256° |
| 2026-05-08 12:12 | 52.51166 | -8.76366 | 10148 ft | 291 kts | 257° |
| 2026-05-08 12:12 | 52.50765 | -8.79595 | 9962 ft | 288 kts | 257° |
| 2026-05-08 12:12 | 52.50362 | -8.82816 | 9825 ft | 288 kts | 258° |
| 2026-05-08 12:13 | 52.49964 | -8.85993 | 9588 ft | 282 kts | 257° |
| 2026-05-08 12:13 | 52.49571 | -8.89130 | 9218 ft | 280 kts | 257° |
| 2026-05-08 12:13 | 52.49311 | -8.91204 | 8965 ft | 278 kts | 257° |
| 2026-05-08 12:13 | 52.48930 | -8.94252 | 8586 ft | 267 kts | 257° |
| 2026-05-08 12:14 | 52.48562 | -8.97181 | 8227 ft | 257 kts | 257° |
| 2026-05-08 12:14 | 52.48205 | -8.99994 | 7879 ft | 248 kts | 257° |
| 2026-05-08 12:14 | 52.47855 | -9.02742 | 7539 ft | 245 kts | 257° |
| 2026-05-08 12:14 | 52.47507 | -9.05470 | 7199 ft | 243 kts | 257° |
| 2026-05-08 12:15 | 52.47270 | -9.08224 | 6866 ft | 246 kts | 272° |
| 2026-05-08 12:15 | 52.47677 | -9.10916 | 6527 ft | 245 kts | 298° |
| 2026-05-08 12:15 | 52.48728 | -9.13087 | 6153 ft | 244 kts | 322° |
| 2026-05-08 12:15 | 52.50072 | -9.14790 | 5785 ft | 244 kts | 323° |
| 2026-05-08 12:16 | 52.51413 | -9.16494 | 5443 ft | 244 kts | 323° |
| 2026-05-08 12:16 | 52.52793 | -9.18107 | 5033 ft | 244 kts | 333° |
| 2026-05-08 12:16 | 52.54363 | -9.18996 | 4545 ft | 238 kts | 352° |
| 2026-05-08 12:16 | 52.56010 | -9.18992 | 4022 ft | 234 kts | 13° |
| 2026-05-08 12:17 | 52.57494 | -9.18150 | 3738 ft | 220 kts | 30° |
| 2026-05-08 12:17 | 52.58692 | -9.16693 | 3493 ft | 212 kts | 46° |
| 2026-05-08 12:17 | 52.59624 | -9.14823 | 3215 ft | 211 kts | 52° |
| 2026-05-08 12:17 | 52.60517 | -9.12948 | 2925 ft | 205 kts | 52° |
| 2026-05-08 12:18 | 52.61380 | -9.11133 | 2647 ft | 198 kts | 52° |
| 2026-05-08 12:18 | 52.62203 | -9.09398 | 2408 ft | 185 kts | 52° |
| 2026-05-08 12:18 | 52.62972 | -9.07777 | 2149 ft | 174 kts | 51° |
| 2026-05-08 12:18 | 52.63694 | -9.06252 | 1918 ft | 165 kts | 52° |
| 2026-05-08 12:19 | 52.64352 | -9.04863 | 1706 ft | 149 kts | 52° |
| 2026-05-08 12:19 | 52.64963 | -9.03572 | 1499 ft | 139 kts | 52° |
| 2026-05-08 12:19 | 52.65550 | -9.02320 | 1324 ft | 136 kts | 52° |
| 2026-05-08 12:19 | 52.66121 | -9.01089 | 1138 ft | 135 kts | 52° |
| 2026-05-08 12:20 | 52.66694 | -8.99870 | 1011 ft | 135 kts | 50° |
| 2026-05-08 12:20 | 52.67273 | -8.98663 | 817 ft | 136 kts | 50° |
| 2026-05-08 12:20 | 52.67849 | -8.97456 | 627 ft | 135 kts | 50° |
| 2026-05-08 12:20 | 52.68421 | -8.96253 | 389 ft | 135 kts | 49° |
| 2026-05-08 12:21 | 52.68985 | -8.95047 | 207 ft | 133 kts | 51° |
| 2026-05-08 12:21 | 52.69550 | -8.93867 | 55 ft | 131 kts | 50° |
| 2026-05-08 12:21 | 52.70042 | -8.92828 | 36 ft | 93 kts | 52° |
| 2026-05-08 12:21 | 52.70333 | -8.92212 | 33 ft | 44 kts | 52° |
| 2026-05-08 12:22 | 52.70511 | -8.91829 | 28 ft | 44 kts | 52° |
| 2026-05-08 12:22 | 52.70695 | -8.91442 | 28 ft | 32 kts | 52° |
| 2026-05-08 12:22 | 52.70777 | -8.91216 | 25 ft | 13 kts | 99° |
| 2026-05-08 12:22 | 52.70707 | -8.91151 | 24 ft | 12 kts | 172° |
| 2026-05-08 12:23 | 52.70615 | -8.91126 | 23 ft | 15 kts | 170° |
| 2026-05-08 12:23 | 52.70512 | -8.91091 | 23 ft | 15 kts | 168° |
| 2026-05-08 12:23 | 52.70406 | -8.91056 | 23 ft | 16 kts | 173° |
| 2026-05-08 12:23 | 52.70300 | -8.91029 | 25 ft | 15 kts | 168° |
| 2026-05-08 12:24 | 52.70200 | -8.91007 | 22 ft | 14 kts | 186° |
| 2026-05-08 12:24 | 52.70106 | -8.91058 | 22 ft | 18 kts | 198° |
| 2026-05-08 12:24 | 52.69960 | -8.91138 | 23 ft | 24 kts | 198° |
| 2026-05-08 12:24 | 52.69795 | -8.91229 | 22 ft | 26 kts | 199° |
| 2026-05-08 12:25 | 52.69619 | -8.91328 | 24 ft | 28 kts | 198° |
| 2026-05-08 12:25 | 52.69438 | -8.91425 | 25 ft | 23 kts | 199° |
| 2026-05-08 12:25 | 52.69298 | -8.91504 | 22 ft | 16 kts | 200° |
| 2026-05-08 12:25 | 52.69269 | -8.91614 | 22 ft | 12 kts | 307° |
| 2026-05-08 12:26 | 52.69324 | -8.91714 | 22 ft | 12 kts | 317° |
| 2026-05-08 12:26 | 52.69403 | -8.91769 | 22 ft | 13 kts | 331° |
| 2026-05-08 12:26 | 52.69449 | -8.91902 | 22 ft | 14 kts | 285° |
| 2026-05-08 12:26 | 52.69471 | -8.92048 | 25 ft | 12 kts | 284° |
| 2026-05-08 12:27 | 52.69481 | -8.92106 | 22 ft | 0 kts | 286° |
| 2026-05-08 12:27 | 52.69477 | -8.92148 | 22 ft | 6 kts | 212° |
| 2026-05-08 12:27 | 52.69417 | -8.92162 | 22 ft | 11 kts | 184° |
| 2026-05-08 12:27 | 52.69385 | -8.92166 | 22 ft | 2 kts | 184° |
| 2026-05-08 12:28 | 52.69377 | -8.92167 | 22 ft | 1 kts | 185° |